Aviation Digital Data Service (ADDS)

Output produced by METARs form (1934 UTC 26 September 2021)
found at http://www.aviationweather.gov/metar/data/
 
METAR text: KPVF 261915Z AUTO 22006KT 190V250 10SM CLR 25/00 A3008 RMK AO1
Conditions at: KPVF (PLACERVILLE , CA, US) observed 1915 UTC 26 September 2021
Temperature: 25.0°C (77°F)
Dewpoint: 0.0°C (32°F) [RH = 19%]
Pressure (altimeter): 30.08 inches Hg (1018.7 mb)
Winds: from the SW (220 degrees) at 7 MPH (6 knots; 3.1 m/s)
Visibility: 10 or more miles (16+ km)
Ceiling: at least 12,000 feet AGL
Clouds: sky clear below 12,000 feet AGL
Weather: automated observation with no human augmentation;
there may or may not be significant weather present at this time

METAR text: KPVF 261855Z AUTO 22007KT 10SM CLR 25/00 A3008 RMK AO1
Conditions at: KPVF (PLACERVILLE , CA, US) observed 1855 UTC 26 September 2021
Temperature: 25.0°C (77°F)
Dewpoint: 0.0°C (32°F) [RH = 19%]
Pressure (altimeter): 30.08 inches Hg (1018.7 mb)
Winds: from the SW (220 degrees) at 8 MPH (7 knots; 3.6 m/s)
Visibility: 10 or more miles (16+ km)
Ceiling: at least 12,000 feet AGL
Clouds: sky clear below 12,000 feet AGL
Weather: automated observation with no human augmentation;
there may or may not be significant weather present at this time

METAR text: KPVF 261835Z AUTO 22009KT 10SM CLR 24/00 A3009 RMK AO1
Conditions at: KPVF (PLACERVILLE , CA, US) observed 1835 UTC 26 September 2021
Temperature: 24.0°C (75°F)
Dewpoint: 0.0°C (32°F) [RH = 20%]
Pressure (altimeter): 30.09 inches Hg (1019.0 mb)
Winds: from the SW (220 degrees) at 10 MPH (9 knots; 4.6 m/s)
Visibility: 10 or more miles (16+ km)
Ceiling: at least 12,000 feet AGL
Clouds: sky clear below 12,000 feet AGL
Weather: automated observation with no human augmentation;
there may or may not be significant weather present at this time

METAR text: KPVF 261815Z AUTO 22006KT 10SM CLR 25/02 A3008 RMK AO1
Conditions at: KPVF (PLACERVILLE , CA, US) observed 1815 UTC 26 September 2021
Temperature: 25.0°C (77°F)
Dewpoint: 2.0°C (36°F) [RH = 22%]
Pressure (altimeter): 30.08 inches Hg (1018.7 mb)
Winds: from the SW (220 degrees) at 7 MPH (6 knots; 3.1 m/s)
Visibility: 10 or more miles (16+ km)
Ceiling: at least 12,000 feet AGL
Clouds: sky clear below 12,000 feet AGL
Weather: automated observation with no human augmentation;
there may or may not be significant weather present at this time

METAR text: KPVF 261755Z AUTO 23007KT 10SM CLR 25/03 A3008 RMK AO1
Conditions at: KPVF (PLACERVILLE , CA, US) observed 1755 UTC 26 September 2021
Temperature: 25.0°C (77°F)
Dewpoint: 3.0°C (37°F) [RH = 24%]
Pressure (altimeter): 30.08 inches Hg (1018.7 mb)
Winds: from the SW (230 degrees) at 8 MPH (7 knots; 3.6 m/s)
Visibility: 10 or more miles (16+ km)
Ceiling: at least 12,000 feet AGL
Clouds: sky clear below 12,000 feet AGL
Weather: automated observation with no human augmentation;
there may or may not be significant weather present at this time

METAR text: KPVF 261735Z AUTO 21008KT 10SM CLR 25/03 A3007 RMK AO1
Conditions at: KPVF (PLACERVILLE , CA, US) observed 1735 UTC 26 September 2021
Temperature: 25.0°C (77°F)
Dewpoint: 3.0°C (37°F) [RH = 24%]
Pressure (altimeter): 30.07 inches Hg (1018.4 mb)
Winds: from the SSW (210 degrees) at 9 MPH (8 knots; 4.1 m/s)
Visibility: 10 or more miles (16+ km)
Ceiling: at least 12,000 feet AGL
Clouds: sky clear below 12,000 feet AGL
Weather: automated observation with no human augmentation;
there may or may not be significant weather present at this time

METAR text: KPVF 261715Z AUTO 19004KT 10SM CLR 24/04 A3007 RMK AO1
Conditions at: KPVF (PLACERVILLE , CA, US) observed 1715 UTC 26 September 2021
Temperature: 24.0°C (75°F)
Dewpoint: 4.0°C (39°F) [RH = 27%]
Pressure (altimeter): 30.07 inches Hg (1018.4 mb)
Winds: from the S (190 degrees) at 5 MPH (4 knots; 2.1 m/s)
Visibility: 10 or more miles (16+ km)
Ceiling: at least 12,000 feet AGL
Clouds: sky clear below 12,000 feet AGL
Weather: automated observation with no human augmentation;
there may or may not be significant weather present at this time

METAR text: KPVF 261655Z AUTO 19003KT 10SM CLR 24/04 A3006 RMK AO1
Conditions at: KPVF (PLACERVILLE , CA, US) observed 1655 UTC 26 September 2021
Temperature: 24.0°C (75°F)
Dewpoint: 4.0°C (39°F) [RH = 27%]
Pressure (altimeter): 30.06 inches Hg (1018.0 mb)
Winds: from the S (190 degrees) at 3 MPH (3 knots; 1.5 m/s)
Visibility: 10 or more miles (16+ km)
Ceiling: at least 12,000 feet AGL
Clouds: sky clear below 12,000 feet AGL
Weather: automated observation with no human augmentation;
there may or may not be significant weather present at this time

METAR text: KPVF 261635Z AUTO 19003KT 10SM CLR 23/03 A3006 RMK AO1
Conditions at: KPVF (PLACERVILLE , CA, US) observed 1635 UTC 26 September 2021
Temperature: 23.0°C (73°F)
Dewpoint: 3.0°C (37°F) [RH = 27%]
Pressure (altimeter): 30.06 inches Hg (1018.0 mb)
Winds: from the S (190 degrees) at 3 MPH (3 knots; 1.5 m/s)
Visibility: 10 or more miles (16+ km)
Ceiling: at least 12,000 feet AGL
Clouds: sky clear below 12,000 feet AGL
Weather: automated observation with no human augmentation;
there may or may not be significant weather present at this time

METAR text: KPVF 261615Z AUTO 17003KT 10SM CLR 23/02 A3005 RMK AO1
Conditions at: KPVF (PLACERVILLE , CA, US) observed 1615 UTC 26 September 2021
Temperature: 23.0°C (73°F)
Dewpoint: 2.0°C (36°F) [RH = 25%]
Pressure (altimeter): 30.05 inches Hg (1017.7 mb)
Winds: from the S (170 degrees) at 3 MPH (3 knots; 1.5 m/s)
Visibility: 10 or more miles (16+ km)
Ceiling: at least 12,000 feet AGL
Clouds: sky clear below 12,000 feet AGL
Weather: automated observation with no human augmentation;
there may or may not be significant weather present at this time

METAR text: KPVF 261555Z AUTO 17003KT 10SM CLR 22/02 A3005 RMK AO1
Conditions at: KPVF (PLACERVILLE , CA, US) observed 1555 UTC 26 September 2021
Temperature: 22.0°C (72°F)
Dewpoint: 2.0°C (36°F) [RH = 27%]
Pressure (altimeter): 30.05 inches Hg (1017.7 mb)
Winds: from the S (170 degrees) at 3 MPH (3 knots; 1.5 m/s)
Visibility: 10 or more miles (16+ km)
Ceiling: at least 12,000 feet AGL
Clouds: sky clear below 12,000 feet AGL
Weather: automated observation with no human augmentation;
there may or may not be significant weather present at this time

METAR text: KPVF 261535Z AUTO 14004KT 10SM CLR 21/02 A3005 RMK AO1
Conditions at: KPVF (PLACERVILLE , CA, US) observed 1535 UTC 26 September 2021
Temperature: 21.0°C (70°F)
Dewpoint: 2.0°C (36°F) [RH = 28%]
Pressure (altimeter): 30.05 inches Hg (1017.7 mb)
Winds: from the SE (140 degrees) at 5 MPH (4 knots; 2.1 m/s)
Visibility: 10 or more miles (16+ km)
Ceiling: at least 12,000 feet AGL
Clouds: sky clear below 12,000 feet AGL
Weather: automated observation with no human augmentation;
there may or may not be significant weather present at this time

METAR text: KPVF 261515Z AUTO 13003KT 10SM CLR 20/02 A3005 RMK AO1
Conditions at: KPVF (PLACERVILLE , CA, US) observed 1515 UTC 26 September 2021
Temperature: 20.0°C (68°F)
Dewpoint: 2.0°C (36°F) [RH = 30%]
Pressure (altimeter): 30.05 inches Hg (1017.7 mb)
Winds: from the SE (130 degrees) at 3 MPH (3 knots; 1.5 m/s)
Visibility: 10 or more miles (16+ km)
Ceiling: at least 12,000 feet AGL
Clouds: sky clear below 12,000 feet AGL
Weather: automated observation with no human augmentation;
there may or may not be significant weather present at this time

METAR text: KPVF 261455Z AUTO 14003KT 10SM CLR 20/01 A3005 RMK AO1
Conditions at: KPVF (PLACERVILLE , CA, US) observed 1455 UTC 26 September 2021
Temperature: 20.0°C (68°F)
Dewpoint: 1.0°C (34°F) [RH = 28%]
Pressure (altimeter): 30.05 inches Hg (1017.7 mb)
Winds: from the SE (140 degrees) at 3 MPH (3 knots; 1.5 m/s)
Visibility: 10 or more miles (16+ km)
Ceiling: at least 12,000 feet AGL
Clouds: sky clear below 12,000 feet AGL
Weather: automated observation with no human augmentation;
there may or may not be significant weather present at this time

METAR text: KPVF 261435Z AUTO 13004KT 10SM CLR 20/01 A3005 RMK AO1
Conditions at: KPVF (PLACERVILLE , CA, US) observed 1435 UTC 26 September 2021
Temperature: 20.0°C (68°F)
Dewpoint: 1.0°C (34°F) [RH = 28%]
Pressure (altimeter): 30.05 inches Hg (1017.7 mb)
Winds: from the SE (130 degrees) at 5 MPH (4 knots; 2.1 m/s)
Visibility: 10 or more miles (16+ km)
Ceiling: at least 12,000 feet AGL
Clouds: sky clear below 12,000 feet AGL
Weather: automated observation with no human augmentation;
there may or may not be significant weather present at this time

METAR text: KPVF 261415Z AUTO 14003KT 10SM CLR 20/01 A3005 RMK AO1
Conditions at: KPVF (PLACERVILLE , CA, US) observed 1415 UTC 26 September 2021
Temperature: 20.0°C (68°F)
Dewpoint: 1.0°C (34°F) [RH = 28%]
Pressure (altimeter): 30.05 inches Hg (1017.7 mb)
Winds: from the SE (140 degrees) at 3 MPH (3 knots; 1.5 m/s)
Visibility: 10 or more miles (16+ km)
Ceiling: at least 12,000 feet AGL
Clouds: sky clear below 12,000 feet AGL
Weather: automated observation with no human augmentation;
there may or may not be significant weather present at this time

METAR text: KPVF 261355Z AUTO 09005KT 10SM FEW041 FEW090 19/02 A3004 RMK AO1
Conditions at: KPVF (PLACERVILLE , CA, US) observed 1355 UTC 26 September 2021
Temperature: 19.0°C (66°F)
Dewpoint: 2.0°C (36°F) [RH = 32%]
Pressure (altimeter): 30.04 inches Hg (1017.4 mb)
Winds: from the E (90 degrees) at 6 MPH (5 knots; 2.6 m/s)
Visibility: 10 or more miles (16+ km)
Ceiling: at least 12,000 feet AGL
Clouds: few clouds at 4100 feet AGL
few clouds at 9000 feet AGL
Weather: automated observation with no human augmentation;
there may or may not be significant weather present at this time

METAR text: KPVF 261335Z AUTO 13005KT 10SM BKN043 BKN050 OVC090 20/02 A3004 RMK AO1
Conditions at: KPVF (PLACERVILLE , CA, US) observed 1335 UTC 26 September 2021
Temperature: 20.0°C (68°F)
Dewpoint: 2.0°C (36°F) [RH = 30%]
Pressure (altimeter): 30.04 inches Hg (1017.4 mb)
Winds: from the SE (130 degrees) at 6 MPH (5 knots; 2.6 m/s)
Visibility: 10 or more miles (16+ km)
Ceiling: 4300 feet AGL
Clouds: broken clouds at 4300 feet AGL
broken clouds at 5000 feet AGL
overcast cloud deck at 9000 feet AGL
Weather: automated observation with no human augmentation;
there may or may not be significant weather present at this time

METAR text: KPVF 261315Z AUTO 11006KT 10SM BKN046 OVC050 19/02 A3004 RMK AO1
Conditions at: KPVF (PLACERVILLE , CA, US) observed 1315 UTC 26 September 2021
Temperature: 19.0°C (66°F)
Dewpoint: 2.0°C (36°F) [RH = 32%]
Pressure (altimeter): 30.04 inches Hg (1017.4 mb)
Winds: from the ESE (110 degrees) at 7 MPH (6 knots; 3.1 m/s)
Visibility: 10 or more miles (16+ km)
Ceiling: 4600 feet AGL
Clouds: broken clouds at 4600 feet AGL
overcast cloud deck at 5000 feet AGL
Weather: automated observation with no human augmentation;
there may or may not be significant weather present at this time

METAR text: KPVF 261255Z AUTO 11006KT 10SM BKN048 OVC050 19/03 A3003 RMK AO1
Conditions at: KPVF (PLACERVILLE , CA, US) observed 1255 UTC 26 September 2021
Temperature: 19.0°C (66°F)
Dewpoint: 3.0°C (37°F) [RH = 34%]
Pressure (altimeter): 30.03 inches Hg (1017.0 mb)
Winds: from the ESE (110 degrees) at 7 MPH (6 knots; 3.1 m/s)
Visibility: 10 or more miles (16+ km)
Ceiling: 4800 feet AGL
Clouds: broken clouds at 4800 feet AGL
overcast cloud deck at 5000 feet AGL
Weather: automated observation with no human augmentation;
there may or may not be significant weather present at this time

METAR text: KPVF 261235Z AUTO 11006KT 10SM OVC050 18/03 A3003 RMK AO1
Conditions at: KPVF (PLACERVILLE , CA, US) observed 1235 UTC 26 September 2021
Temperature: 18.0°C (64°F)
Dewpoint: 3.0°C (37°F) [RH = 37%]
Pressure (altimeter): 30.03 inches Hg (1017.0 mb)
Winds: from the ESE (110 degrees) at 7 MPH (6 knots; 3.1 m/s)
Visibility: 10 or more miles (16+ km)
Ceiling: 5000 feet AGL
Clouds: overcast cloud deck at 5000 feet AGL
Weather: automated observation with no human augmentation;
there may or may not be significant weather present at this time

METAR text: KPVF 261215Z AUTO 11006KT 10SM BKN050 OVC100 18/03 A3003 RMK AO1
Conditions at: KPVF (PLACERVILLE , CA, US) observed 1215 UTC 26 September 2021
Temperature: 18.0°C (64°F)
Dewpoint: 3.0°C (37°F) [RH = 37%]
Pressure (altimeter): 30.03 inches Hg (1017.0 mb)
Winds: from the ESE (110 degrees) at 7 MPH (6 knots; 3.1 m/s)
Visibility: 10 or more miles (16+ km)
Ceiling: 5000 feet AGL
Clouds: broken clouds at 5000 feet AGL
overcast cloud deck at 10000 feet AGL
Weather: automated observation with no human augmentation;
there may or may not be significant weather present at this time

METAR text: KPVF 261155Z AUTO 09007KT 10SM FEW050 OVC100 18/03 A3004 RMK AO1
Conditions at: KPVF (PLACERVILLE , CA, US) observed 1155 UTC 26 September 2021
Temperature: 18.0°C (64°F)
Dewpoint: 3.0°C (37°F) [RH = 37%]
Pressure (altimeter): 30.04 inches Hg (1017.4 mb)
Winds: from the E (90 degrees) at 8 MPH (7 knots; 3.6 m/s)
Visibility: 10 or more miles (16+ km)
Ceiling: 10000 feet AGL
Clouds: few clouds at 5000 feet AGL
overcast cloud deck at 10000 feet AGL
Weather: automated observation with no human augmentation;
there may or may not be significant weather present at this time

METAR text: KPVF 261135Z AUTO 10006KT 10SM OVC100 19/04 A3004 RMK AO1
Conditions at: KPVF (PLACERVILLE , CA, US) observed 1135 UTC 26 September 2021
Temperature: 19.0°C (66°F)
Dewpoint: 4.0°C (39°F) [RH = 37%]
Pressure (altimeter): 30.04 inches Hg (1017.4 mb)
Winds: from the E (100 degrees) at 7 MPH (6 knots; 3.1 m/s)
Visibility: 10 or more miles (16+ km)
Ceiling: 10000 feet AGL
Clouds: overcast cloud deck at 10000 feet AGL
Weather: automated observation with no human augmentation;
there may or may not be significant weather present at this time

METAR text: KPVF 261115Z AUTO 10007KT 10SM OVC100 19/04 A3004 RMK AO1
Conditions at: KPVF (PLACERVILLE , CA, US) observed 1115 UTC 26 September 2021
Temperature: 19.0°C (66°F)
Dewpoint: 4.0°C (39°F) [RH = 37%]
Pressure (altimeter): 30.04 inches Hg (1017.4 mb)
Winds: from the E (100 degrees) at 8 MPH (7 knots; 3.6 m/s)
Visibility: 10 or more miles (16+ km)
Ceiling: 10000 feet AGL
Clouds: overcast cloud deck at 10000 feet AGL
Weather: automated observation with no human augmentation;
there may or may not be significant weather present at this time

METAR text: KPVF 261055Z AUTO 10006KT 10SM OVC100 19/04 A3004 RMK AO1
Conditions at: KPVF (PLACERVILLE , CA, US) observed 1055 UTC 26 September 2021
Temperature: 19.0°C (66°F)
Dewpoint: 4.0°C (39°F) [RH = 37%]
Pressure (altimeter): 30.04 inches Hg (1017.4 mb)
Winds: from the E (100 degrees) at 7 MPH (6 knots; 3.1 m/s)
Visibility: 10 or more miles (16+ km)
Ceiling: 10000 feet AGL
Clouds: overcast cloud deck at 10000 feet AGL
Weather: automated observation with no human augmentation;
there may or may not be significant weather present at this time

METAR text: KPVF 261035Z AUTO 09006KT 10SM OVC100 19/03 A3005 RMK AO1
Conditions at: KPVF (PLACERVILLE , CA, US) observed 1035 UTC 26 September 2021
Temperature: 19.0°C (66°F)
Dewpoint: 3.0°C (37°F) [RH = 34%]
Pressure (altimeter): 30.05 inches Hg (1017.7 mb)
Winds: from the E (90 degrees) at 7 MPH (6 knots; 3.1 m/s)
Visibility: 10 or more miles (16+ km)
Ceiling: 10000 feet AGL
Clouds: overcast cloud deck at 10000 feet AGL
Weather: automated observation with no human augmentation;
there may or may not be significant weather present at this time

METAR text: KPVF 261015Z AUTO 09006KT 10SM OVC100 19/03 A3005 RMK AO1
Conditions at: KPVF (PLACERVILLE , CA, US) observed 1015 UTC 26 September 2021
Temperature: 19.0°C (66°F)
Dewpoint: 3.0°C (37°F) [RH = 34%]
Pressure (altimeter): 30.05 inches Hg (1017.7 mb)
Winds: from the E (90 degrees) at 7 MPH (6 knots; 3.1 m/s)
Visibility: 10 or more miles (16+ km)
Ceiling: 10000 feet AGL
Clouds: overcast cloud deck at 10000 feet AGL
Weather: automated observation with no human augmentation;
there may or may not be significant weather present at this time

METAR text: KPVF 260955Z AUTO 10006KT 10SM OVC100 19/04 A3005 RMK AO1
Conditions at: KPVF (PLACERVILLE , CA, US) observed 0955 UTC 26 September 2021
Temperature: 19.0°C (66°F)
Dewpoint: 4.0°C (39°F) [RH = 37%]
Pressure (altimeter): 30.05 inches Hg (1017.7 mb)
Winds: from the E (100 degrees) at 7 MPH (6 knots; 3.1 m/s)
Visibility: 10 or more miles (16+ km)
Ceiling: 10000 feet AGL
Clouds: overcast cloud deck at 10000 feet AGL
Weather: automated observation with no human augmentation;
there may or may not be significant weather present at this time

METAR text: KPVF 260935Z AUTO 10006KT 10SM OVC100 19/04 A3005 RMK AO1
Conditions at: KPVF (PLACERVILLE , CA, US) observed 0935 UTC 26 September 2021
Temperature: 19.0°C (66°F)
Dewpoint: 4.0°C (39°F) [RH = 37%]
Pressure (altimeter): 30.05 inches Hg (1017.7 mb)
Winds: from the E (100 degrees) at 7 MPH (6 knots; 3.1 m/s)
Visibility: 10 or more miles (16+ km)
Ceiling: 10000 feet AGL
Clouds: overcast cloud deck at 10000 feet AGL
Weather: automated observation with no human augmentation;
there may or may not be significant weather present at this time

METAR text: KPVF 260915Z AUTO 10006KT 10SM OVC090 18/04 A3005 RMK AO1
Conditions at: KPVF (PLACERVILLE , CA, US) observed 0915 UTC 26 September 2021
Temperature: 18.0°C (64°F)
Dewpoint: 4.0°C (39°F) [RH = 39%]
Pressure (altimeter): 30.05 inches Hg (1017.7 mb)
Winds: from the E (100 degrees) at 7 MPH (6 knots; 3.1 m/s)
Visibility: 10 or more miles (16+ km)
Ceiling: 9000 feet AGL
Clouds: overcast cloud deck at 9000 feet AGL
Weather: automated observation with no human augmentation;
there may or may not be significant weather present at this time

METAR text: KPVF 260855Z AUTO 10006KT 10SM FEW075 OVC090 18/04 A3005 RMK AO1
Conditions at: KPVF (PLACERVILLE , CA, US) observed 0855 UTC 26 September 2021
Temperature: 18.0°C (64°F)
Dewpoint: 4.0°C (39°F) [RH = 39%]
Pressure (altimeter): 30.05 inches Hg (1017.7 mb)
Winds: from the E (100 degrees) at 7 MPH (6 knots; 3.1 m/s)
Visibility: 10 or more miles (16+ km)
Ceiling: 9000 feet AGL
Clouds: few clouds at 7500 feet AGL
overcast cloud deck at 9000 feet AGL
Weather: automated observation with no human augmentation;
there may or may not be significant weather present at this time

METAR text: KPVF 260835Z AUTO 12005KT 10SM SCT075 OVC090 19/04 A3005 RMK AO1
Conditions at: KPVF (PLACERVILLE , CA, US) observed 0835 UTC 26 September 2021
Temperature: 19.0°C (66°F)
Dewpoint: 4.0°C (39°F) [RH = 37%]
Pressure (altimeter): 30.05 inches Hg (1017.7 mb)
Winds: from the ESE (120 degrees) at 6 MPH (5 knots; 2.6 m/s)
Visibility: 10 or more miles (16+ km)
Ceiling: 9000 feet AGL
Clouds: scattered clouds at 7500 feet AGL
overcast cloud deck at 9000 feet AGL
Weather: automated observation with no human augmentation;
there may or may not be significant weather present at this time

METAR text: KPVF 260815Z AUTO 11004KT 10SM SCT043 SCT075 OVC090 19/04 A3005 RMK AO1
Conditions at: KPVF (PLACERVILLE , CA, US) observed 0815 UTC 26 September 2021
Temperature: 19.0°C (66°F)
Dewpoint: 4.0°C (39°F) [RH = 37%]
Pressure (altimeter): 30.05 inches Hg (1017.7 mb)
Winds: from the ESE (110 degrees) at 5 MPH (4 knots; 2.1 m/s)
Visibility: 10 or more miles (16+ km)
Ceiling: 9000 feet AGL
Clouds: scattered clouds at 4300 feet AGL
scattered clouds at 7500 feet AGL
overcast cloud deck at 9000 feet AGL
Weather: automated observation with no human augmentation;
there may or may not be significant weather present at this time

METAR text: KPVF 260755Z AUTO 10005KT 10SM SCT043 OVC090 19/04 A3005 RMK AO1
Conditions at: KPVF (PLACERVILLE , CA, US) observed 0755 UTC 26 September 2021
Temperature: 19.0°C (66°F)
Dewpoint: 4.0°C (39°F) [RH = 37%]
Pressure (altimeter): 30.05 inches Hg (1017.7 mb)
Winds: from the E (100 degrees) at 6 MPH (5 knots; 2.6 m/s)
Visibility: 10 or more miles (16+ km)
Ceiling: 9000 feet AGL
Clouds: scattered clouds at 4300 feet AGL
overcast cloud deck at 9000 feet AGL
Weather: automated observation with no human augmentation;
there may or may not be significant weather present at this time

METAR text: KPVF 260735Z AUTO 11005KT 10SM FEW043 OVC090 19/05 A3005 RMK AO1
Conditions at: KPVF (PLACERVILLE , CA, US) observed 0735 UTC 26 September 2021
Temperature: 19.0°C (66°F)
Dewpoint: 5.0°C (41°F) [RH = 40%]
Pressure (altimeter): 30.05 inches Hg (1017.7 mb)
Winds: from the ESE (110 degrees) at 6 MPH (5 knots; 2.6 m/s)
Visibility: 10 or more miles (16+ km)
Ceiling: 9000 feet AGL
Clouds: few clouds at 4300 feet AGL
overcast cloud deck at 9000 feet AGL
Weather: automated observation with no human augmentation;
there may or may not be significant weather present at this time

METAR text: KPVF 260715Z AUTO 11005KT 10SM SCT043 OVC090 19/05 A3005 RMK AO1
Conditions at: KPVF (PLACERVILLE , CA, US) observed 0715 UTC 26 September 2021
Temperature: 19.0°C (66°F)
Dewpoint: 5.0°C (41°F) [RH = 40%]
Pressure (altimeter): 30.05 inches Hg (1017.7 mb)
Winds: from the ESE (110 degrees) at 6 MPH (5 knots; 2.6 m/s)
Visibility: 10 or more miles (16+ km)
Ceiling: 9000 feet AGL
Clouds: scattered clouds at 4300 feet AGL
overcast cloud deck at 9000 feet AGL
Weather: automated observation with no human augmentation;
there may or may not be significant weather present at this time

METAR text: KPVF 260655Z AUTO 11003KT 10SM FEW041 OVC090 19/04 A3005 RMK AO1
Conditions at: KPVF (PLACERVILLE , CA, US) observed 0655 UTC 26 September 2021
Temperature: 19.0°C (66°F)
Dewpoint: 4.0°C (39°F) [RH = 37%]
Pressure (altimeter): 30.05 inches Hg (1017.7 mb)
Winds: from the ESE (110 degrees) at 3 MPH (3 knots; 1.5 m/s)
Visibility: 10 or more miles (16+ km)
Ceiling: 9000 feet AGL
Clouds: few clouds at 4100 feet AGL
overcast cloud deck at 9000 feet AGL
Weather: automated observation with no human augmentation;
there may or may not be significant weather present at this time

METAR text: KPVF 260635Z AUTO 11004KT 10SM FEW039 OVC090 19/05 A3005 RMK AO1
Conditions at: KPVF (PLACERVILLE , CA, US) observed 0635 UTC 26 September 2021
Temperature: 19.0°C (66°F)
Dewpoint: 5.0°C (41°F) [RH = 40%]
Pressure (altimeter): 30.05 inches Hg (1017.7 mb)
Winds: from the ESE (110 degrees) at 5 MPH (4 knots; 2.1 m/s)
Visibility: 10 or more miles (16+ km)
Ceiling: 9000 feet AGL
Clouds: few clouds at 3900 feet AGL
overcast cloud deck at 9000 feet AGL
Weather: automated observation with no human augmentation;
there may or may not be significant weather present at this time

METAR text: KPVF 260615Z AUTO 12003KT 10SM FEW039 OVC090 19/05 A3005 RMK AO1
Conditions at: KPVF (PLACERVILLE , CA, US) observed 0615 UTC 26 September 2021
Temperature: 19.0°C (66°F)
Dewpoint: 5.0°C (41°F) [RH = 40%]
Pressure (altimeter): 30.05 inches Hg (1017.7 mb)
Winds: from the ESE (120 degrees) at 3 MPH (3 knots; 1.5 m/s)
Visibility: 10 or more miles (16+ km)
Ceiling: 9000 feet AGL
Clouds: few clouds at 3900 feet AGL
overcast cloud deck at 9000 feet AGL
Weather: automated observation with no human augmentation;
there may or may not be significant weather present at this time

METAR text: KPVF 260555Z AUTO 15004KT 10SM FEW037 OVC090 19/05 A3004 RMK AO1
Conditions at: KPVF (PLACERVILLE , CA, US) observed 0555 UTC 26 September 2021
Temperature: 19.0°C (66°F)
Dewpoint: 5.0°C (41°F) [RH = 40%]
Pressure (altimeter): 30.04 inches Hg (1017.4 mb)
Winds: from the SSE (150 degrees) at 5 MPH (4 knots; 2.1 m/s)
Visibility: 10 or more miles (16+ km)
Ceiling: 9000 feet AGL
Clouds: few clouds at 3700 feet AGL
overcast cloud deck at 9000 feet AGL
Weather: automated observation with no human augmentation;
there may or may not be significant weather present at this time

METAR text: KPVF 260535Z AUTO 16005KT 10SM FEW037 OVC090 19/05 A3004 RMK AO1
Conditions at: KPVF (PLACERVILLE , CA, US) observed 0535 UTC 26 September 2021
Temperature: 19.0°C (66°F)
Dewpoint: 5.0°C (41°F) [RH = 40%]
Pressure (altimeter): 30.04 inches Hg (1017.4 mb)
Winds: from the SSE (160 degrees) at 6 MPH (5 knots; 2.6 m/s)
Visibility: 10 or more miles (16+ km)
Ceiling: 9000 feet AGL
Clouds: few clouds at 3700 feet AGL
overcast cloud deck at 9000 feet AGL
Weather: automated observation with no human augmentation;
there may or may not be significant weather present at this time

METAR text: KPVF 260515Z AUTO 16004KT 10SM SCT037 OVC100 19/05 A3004 RMK AO1
Conditions at: KPVF (PLACERVILLE , CA, US) observed 0515 UTC 26 September 2021
Temperature: 19.0°C (66°F)
Dewpoint: 5.0°C (41°F) [RH = 40%]
Pressure (altimeter): 30.04 inches Hg (1017.4 mb)
Winds: from the SSE (160 degrees) at 5 MPH (4 knots; 2.1 m/s)
Visibility: 10 or more miles (16+ km)
Ceiling: 10000 feet AGL
Clouds: scattered clouds at 3700 feet AGL
overcast cloud deck at 10000 feet AGL
Weather: automated observation with no human augmentation;
there may or may not be significant weather present at this time

METAR text: KPVF 260455Z AUTO 16004KT 10SM FEW037 OVC100 20/04 A3004 RMK AO1
Conditions at: KPVF (PLACERVILLE , CA, US) observed 0455 UTC 26 September 2021
Temperature: 20.0°C (68°F)
Dewpoint: 4.0°C (39°F) [RH = 35%]
Pressure (altimeter): 30.04 inches Hg (1017.4 mb)
Winds: from the SSE (160 degrees) at 5 MPH (4 knots; 2.1 m/s)
Visibility: 10 or more miles (16+ km)
Ceiling: 10000 feet AGL
Clouds: few clouds at 3700 feet AGL
overcast cloud deck at 10000 feet AGL
Weather: automated observation with no human augmentation;
there may or may not be significant weather present at this time

METAR text: KPVF 260435Z AUTO 16004KT 10SM FEW037 OVC100 20/03 A3004 RMK AO1
Conditions at: KPVF (PLACERVILLE , CA, US) observed 0435 UTC 26 September 2021
Temperature: 20.0°C (68°F)
Dewpoint: 3.0°C (37°F) [RH = 32%]
Pressure (altimeter): 30.04 inches Hg (1017.4 mb)
Winds: from the SSE (160 degrees) at 5 MPH (4 knots; 2.1 m/s)
Visibility: 10 or more miles (16+ km)
Ceiling: 10000 feet AGL
Clouds: few clouds at 3700 feet AGL
overcast cloud deck at 10000 feet AGL
Weather: automated observation with no human augmentation;
there may or may not be significant weather present at this time

METAR text: KPVF 260415Z AUTO 12004KT 10SM SCT039 OVC100 20/03 A3003 RMK AO1
Conditions at: KPVF (PLACERVILLE , CA, US) observed 0415 UTC 26 September 2021
Temperature: 20.0°C (68°F)
Dewpoint: 3.0°C (37°F) [RH = 32%]
Pressure (altimeter): 30.03 inches Hg (1017.0 mb)
Winds: from the ESE (120 degrees) at 5 MPH (4 knots; 2.1 m/s)
Visibility: 10 or more miles (16+ km)
Ceiling: 10000 feet AGL
Clouds: scattered clouds at 3900 feet AGL
overcast cloud deck at 10000 feet AGL
Weather: automated observation with no human augmentation;
there may or may not be significant weather present at this time

METAR text: KPVF 260355Z AUTO 11005KT 10SM SCT039 OVC100 22/03 A3003 RMK AO1
Conditions at: KPVF (PLACERVILLE , CA, US) observed 0355 UTC 26 September 2021
Temperature: 22.0°C (72°F)
Dewpoint: 3.0°C (37°F) [RH = 29%]
Pressure (altimeter): 30.03 inches Hg (1017.0 mb)
Winds: from the ESE (110 degrees) at 6 MPH (5 knots; 2.6 m/s)
Visibility: 10 or more miles (16+ km)
Ceiling: 10000 feet AGL
Clouds: scattered clouds at 3900 feet AGL
overcast cloud deck at 10000 feet AGL
Weather: automated observation with no human augmentation;
there may or may not be significant weather present at this time

METAR text: KPVF 260335Z AUTO 13003KT 10SM SCT039 OVC100 22/04 A3003 RMK AO1
Conditions at: KPVF (PLACERVILLE , CA, US) observed 0335 UTC 26 September 2021
Temperature: 22.0°C (72°F)
Dewpoint: 4.0°C (39°F) [RH = 31%]
Pressure (altimeter): 30.03 inches Hg (1017.0 mb)
Winds: from the SE (130 degrees) at 3 MPH (3 knots; 1.5 m/s)
Visibility: 10 or more miles (16+ km)
Ceiling: 10000 feet AGL
Clouds: scattered clouds at 3900 feet AGL
overcast cloud deck at 10000 feet AGL
Weather: automated observation with no human augmentation;
there may or may not be significant weather present at this time

METAR text: KPVF 260315Z AUTO 00000KT 10SM SCT039 OVC100 23/05 A3003 RMK AO1
Conditions at: KPVF (PLACERVILLE , CA, US) observed 0315 UTC 26 September 2021
Temperature: 23.0°C (73°F)
Dewpoint: 5.0°C (41°F) [RH = 31%]
Pressure (altimeter): 30.03 inches Hg (1017.0 mb)
Winds: calm
Visibility: 10 or more miles (16+ km)
Ceiling: 10000 feet AGL
Clouds: scattered clouds at 3900 feet AGL
overcast cloud deck at 10000 feet AGL
Weather: automated observation with no human augmentation;
there may or may not be significant weather present at this time

METAR text: KPVF 260255Z AUTO 00000KT 10SM FEW039 OVC100 23/04 A3002 RMK AO1
Conditions at: KPVF (PLACERVILLE , CA, US) observed 0255 UTC 26 September 2021
Temperature: 23.0°C (73°F)
Dewpoint: 4.0°C (39°F) [RH = 29%]
Pressure (altimeter): 30.02 inches Hg (1016.7 mb)
Winds: calm
Visibility: 10 or more miles (16+ km)
Ceiling: 10000 feet AGL
Clouds: few clouds at 3900 feet AGL
overcast cloud deck at 10000 feet AGL
Weather: automated observation with no human augmentation;
there may or may not be significant weather present at this time

METAR text: KPVF 260235Z AUTO 25004KT 10SM BKN100 24/04 A3002 RMK AO1
Conditions at: KPVF (PLACERVILLE , CA, US) observed 0235 UTC 26 September 2021
Temperature: 24.0°C (75°F)
Dewpoint: 4.0°C (39°F) [RH = 27%]
Pressure (altimeter): 30.02 inches Hg (1016.7 mb)
Winds: from the WSW (250 degrees) at 5 MPH (4 knots; 2.1 m/s)
Visibility: 10 or more miles (16+ km)
Ceiling: 10000 feet AGL
Clouds: broken clouds at 10000 feet AGL
Weather: automated observation with no human augmentation;
there may or may not be significant weather present at this time

METAR text: KPVF 260215Z AUTO 24003KT 10SM CLR 24/02 A3002 RMK AO1
Conditions at: KPVF (PLACERVILLE , CA, US) observed 0215 UTC 26 September 2021
Temperature: 24.0°C (75°F)
Dewpoint: 2.0°C (36°F) [RH = 24%]
Pressure (altimeter): 30.02 inches Hg (1016.7 mb)
Winds: from the WSW (240 degrees) at 3 MPH (3 knots; 1.5 m/s)
Visibility: 10 or more miles (16+ km)
Ceiling: at least 12,000 feet AGL
Clouds: sky clear below 12,000 feet AGL
Weather: automated observation with no human augmentation;
there may or may not be significant weather present at this time

METAR text: KPVF 260155Z AUTO 28003KT 10SM CLR 25/02 A3002 RMK AO1
Conditions at: KPVF (PLACERVILLE , CA, US) observed 0155 UTC 26 September 2021
Temperature: 25.0°C (77°F)
Dewpoint: 2.0°C (36°F) [RH = 22%]
Pressure (altimeter): 30.02 inches Hg (1016.7 mb)
Winds: from the W (280 degrees) at 3 MPH (3 knots; 1.5 m/s)
Visibility: 10 or more miles (16+ km)
Ceiling: at least 12,000 feet AGL
Clouds: sky clear below 12,000 feet AGL
Weather: automated observation with no human augmentation;
there may or may not be significant weather present at this time

METAR text: KPVF 260135Z AUTO 00000KT 10SM CLR 26/01 A3002 RMK AO1
Conditions at: KPVF (PLACERVILLE , CA, US) observed 0135 UTC 26 September 2021
Temperature: 26.0°C (79°F)
Dewpoint: 1.0°C (34°F) [RH = 20%]
Pressure (altimeter): 30.02 inches Hg (1016.7 mb)
Winds: calm
Visibility: 10 or more miles (16+ km)
Ceiling: at least 12,000 feet AGL
Clouds: sky clear below 12,000 feet AGL
Weather: automated observation with no human augmentation;
there may or may not be significant weather present at this time

METAR text: KPVF 260115Z AUTO 00000KT 10SM CLR 26/02 A3002 RMK AO1
Conditions at: KPVF (PLACERVILLE , CA, US) observed 0115 UTC 26 September 2021
Temperature: 26.0°C (79°F)
Dewpoint: 2.0°C (36°F) [RH = 21%]
Pressure (altimeter): 30.02 inches Hg (1016.7 mb)
Winds: calm
Visibility: 10 or more miles (16+ km)
Ceiling: at least 12,000 feet AGL
Clouds: sky clear below 12,000 feet AGL
Weather: automated observation with no human augmentation;
there may or may not be significant weather present at this time

METAR text: KPVF 260055Z AUTO 30004KT 10SM CLR 27/02 A3002 RMK AO1
Conditions at: KPVF (PLACERVILLE , CA, US) observed 0055 UTC 26 September 2021
Temperature: 27.0°C (81°F)
Dewpoint: 2.0°C (36°F) [RH = 20%]
Pressure (altimeter): 30.02 inches Hg (1016.7 mb)
Winds: from the WNW (300 degrees) at 5 MPH (4 knots; 2.1 m/s)
Visibility: 10 or more miles (16+ km)
Ceiling: at least 12,000 feet AGL
Clouds: sky clear below 12,000 feet AGL
Weather: automated observation with no human augmentation;
there may or may not be significant weather present at this time

METAR text: KPVF 260035Z AUTO 30005KT 10SM CLR 27/02 A3002 RMK AO1
Conditions at: KPVF (PLACERVILLE , CA, US) observed 0035 UTC 26 September 2021
Temperature: 27.0°C (81°F)
Dewpoint: 2.0°C (36°F) [RH = 20%]
Pressure (altimeter): 30.02 inches Hg (1016.7 mb)
Winds: from the WNW (300 degrees) at 6 MPH (5 knots; 2.6 m/s)
Visibility: 10 or more miles (16+ km)
Ceiling: at least 12,000 feet AGL
Clouds: sky clear below 12,000 feet AGL
Weather: automated observation with no human augmentation;
there may or may not be significant weather present at this time

METAR text: KPVF 260015Z AUTO 31004KT 9SM CLR 28/02 A3002 RMK AO1
Conditions at: KPVF (PLACERVILLE , CA, US) observed 0015 UTC 26 September 2021
Temperature: 28.0°C (82°F)
Dewpoint: 2.0°C (36°F) [RH = 19%]
Pressure (altimeter): 30.02 inches Hg (1016.7 mb)
Winds: from the NW (310 degrees) at 5 MPH (4 knots; 2.1 m/s)
Visibility: 9 miles (14 km)
Ceiling: at least 12,000 feet AGL
Clouds: sky clear below 12,000 feet AGL
Weather: automated observation with no human augmentation;
there may or may not be significant weather present at this time

METAR text: KPVF 252355Z AUTO 27004KT 10SM CLR 28/02 A3002 RMK AO1
Conditions at: KPVF (PLACERVILLE , CA, US) observed 2355 UTC 25 September 2021
Temperature: 28.0°C (82°F)
Dewpoint: 2.0°C (36°F) [RH = 19%]
Pressure (altimeter): 30.02 inches Hg (1016.7 mb)
Winds: from the W (270 degrees) at 5 MPH (4 knots; 2.1 m/s)
Visibility: 10 or more miles (16+ km)
Ceiling: at least 12,000 feet AGL
Clouds: sky clear below 12,000 feet AGL
Weather: automated observation with no human augmentation;
there may or may not be significant weather present at this time

METAR text: KPVF 252335Z AUTO 29005KT 10SM CLR 28/02 A3002 RMK AO1
Conditions at: KPVF (PLACERVILLE , CA, US) observed 2335 UTC 25 September 2021
Temperature: 28.0°C (82°F)
Dewpoint: 2.0°C (36°F) [RH = 19%]
Pressure (altimeter): 30.02 inches Hg (1016.7 mb)
Winds: from the WNW (290 degrees) at 6 MPH (5 knots; 2.6 m/s)
Visibility: 10 or more miles (16+ km)
Ceiling: at least 12,000 feet AGL
Clouds: sky clear below 12,000 feet AGL
Weather: automated observation with no human augmentation;
there may or may not be significant weather present at this time

METAR text: KPVF 252315Z AUTO 28004KT 10SM CLR 29/02 A3002 RMK AO1
Conditions at: KPVF (PLACERVILLE , CA, US) observed 2315 UTC 25 September 2021
Temperature: 29.0°C (84°F)
Dewpoint: 2.0°C (36°F) [RH = 18%]
Pressure (altimeter): 30.02 inches Hg (1016.7 mb)
Winds: from the W (280 degrees) at 5 MPH (4 knots; 2.1 m/s)
Visibility: 10 or more miles (16+ km)
Ceiling: at least 12,000 feet AGL
Clouds: sky clear below 12,000 feet AGL
Weather: automated observation with no human augmentation;
there may or may not be significant weather present at this time

METAR text: KPVF 252255Z AUTO 32004KT 10SM CLR 29/01 A3003 RMK AO1
Conditions at: KPVF (PLACERVILLE , CA, US) observed 2255 UTC 25 September 2021
Temperature: 29.0°C (84°F)
Dewpoint: 1.0°C (34°F) [RH = 16%]
Pressure (altimeter): 30.03 inches Hg (1017.0 mb)
Winds: from the NW (320 degrees) at 5 MPH (4 knots; 2.1 m/s)
Visibility: 10 or more miles (16+ km)
Ceiling: at least 12,000 feet AGL
Clouds: sky clear below 12,000 feet AGL
Weather: automated observation with no human augmentation;
there may or may not be significant weather present at this time

METAR text: KPVF 252235Z AUTO 28005KT 10SM CLR 29/02 A3003 RMK AO1
Conditions at: KPVF (PLACERVILLE , CA, US) observed 2235 UTC 25 September 2021
Temperature: 29.0°C (84°F)
Dewpoint: 2.0°C (36°F) [RH = 18%]
Pressure (altimeter): 30.03 inches Hg (1017.0 mb)
Winds: from the W (280 degrees) at 6 MPH (5 knots; 2.6 m/s)
Visibility: 10 or more miles (16+ km)
Ceiling: at least 12,000 feet AGL
Clouds: sky clear below 12,000 feet AGL
Weather: automated observation with no human augmentation;
there may or may not be significant weather present at this time

METAR text: KPVF 252215Z AUTO 28007KT 10SM CLR 29/02 A3003 RMK AO1
Conditions at: KPVF (PLACERVILLE , CA, US) observed 2215 UTC 25 September 2021
Temperature: 29.0°C (84°F)
Dewpoint: 2.0°C (36°F) [RH = 18%]
Pressure (altimeter): 30.03 inches Hg (1017.0 mb)
Winds: from the W (280 degrees) at 8 MPH (7 knots; 3.6 m/s)
Visibility: 10 or more miles (16+ km)
Ceiling: at least 12,000 feet AGL
Clouds: sky clear below 12,000 feet AGL
Weather: automated observation with no human augmentation;
there may or may not be significant weather present at this time

METAR text: KPVF 252155Z AUTO 30005KT 10SM CLR 29/01 A3004 RMK AO1
Conditions at: KPVF (PLACERVILLE , CA, US) observed 2155 UTC 25 September 2021
Temperature: 29.0°C (84°F)
Dewpoint: 1.0°C (34°F) [RH = 16%]
Pressure (altimeter): 30.04 inches Hg (1017.4 mb)
Winds: from the WNW (300 degrees) at 6 MPH (5 knots; 2.6 m/s)
Visibility: 10 or more miles (16+ km)
Ceiling: at least 12,000 feet AGL
Clouds: sky clear below 12,000 feet AGL
Weather: automated observation with no human augmentation;
there may or may not be significant weather present at this time

METAR text: KPVF 252135Z AUTO 28008KT 10SM CLR 29/00 A3004 RMK AO1
Conditions at: KPVF (PLACERVILLE , CA, US) observed 2135 UTC 25 September 2021
Temperature: 29.0°C (84°F)
Dewpoint: 0.0°C (32°F) [RH = 15%]
Pressure (altimeter): 30.04 inches Hg (1017.4 mb)
Winds: from the W (280 degrees) at 9 MPH (8 knots; 4.1 m/s)
Visibility: 10 or more miles (16+ km)
Ceiling: at least 12,000 feet AGL
Clouds: sky clear below 12,000 feet AGL
Weather: automated observation with no human augmentation;
there may or may not be significant weather present at this time

METAR text: KPVF 252115Z AUTO 27007KT 230V290 10SM CLR 29/00 A3005 RMK AO1
Conditions at: KPVF (PLACERVILLE , CA, US) observed 2115 UTC 25 September 2021
Temperature: 29.0°C (84°F)
Dewpoint: 0.0°C (32°F) [RH = 15%]
Pressure (altimeter): 30.05 inches Hg (1017.7 mb)
Winds: from the W (270 degrees) at 8 MPH (7 knots; 3.6 m/s)
Visibility: 10 or more miles (16+ km)
Ceiling: at least 12,000 feet AGL
Clouds: sky clear below 12,000 feet AGL
Weather: automated observation with no human augmentation;
there may or may not be significant weather present at this time

METAR text: KPVF 252055Z AUTO 28006G14KT 10SM CLR 29/00 A3005 RMK AO1
Conditions at: KPVF (PLACERVILLE , CA, US) observed 2055 UTC 25 September 2021
Temperature: 29.0°C (84°F)
Dewpoint: 0.0°C (32°F) [RH = 15%]
Pressure (altimeter): 30.05 inches Hg (1017.7 mb)
Winds: from the W (280 degrees) at 7 MPH (6 knots; 3.1 m/s)
gusting to 16 MPH (14 knots; 7.2 m/s)
Visibility: 10 or more miles (16+ km)
Ceiling: at least 12,000 feet AGL
Clouds: sky clear below 12,000 feet AGL
Weather: automated observation with no human augmentation;
there may or may not be significant weather present at this time

METAR text: KPVF 252035Z AUTO 27007KT 10SM CLR 29/00 A3006 RMK AO1
Conditions at: KPVF (PLACERVILLE , CA, US) observed 2035 UTC 25 September 2021
Temperature: 29.0°C (84°F)
Dewpoint: 0.0°C (32°F) [RH = 15%]
Pressure (altimeter): 30.06 inches Hg (1018.0 mb)
Winds: from the W (270 degrees) at 8 MPH (7 knots; 3.6 m/s)
Visibility: 10 or more miles (16+ km)
Ceiling: at least 12,000 feet AGL
Clouds: sky clear below 12,000 feet AGL
Weather: automated observation with no human augmentation;
there may or may not be significant weather present at this time

METAR text: KPVF 252015Z AUTO 29004KT 10SM CLR 29/00 A3006 RMK AO1
Conditions at: KPVF (PLACERVILLE , CA, US) observed 2015 UTC 25 September 2021
Temperature: 29.0°C (84°F)
Dewpoint: 0.0°C (32°F) [RH = 15%]
Pressure (altimeter): 30.06 inches Hg (1018.0 mb)
Winds: from the WNW (290 degrees) at 5 MPH (4 knots; 2.1 m/s)
Visibility: 10 or more miles (16+ km)
Ceiling: at least 12,000 feet AGL
Clouds: sky clear below 12,000 feet AGL
Weather: automated observation with no human augmentation;
there may or may not be significant weather present at this time

METAR text: KPVF 251955Z AUTO 29006KT 10SM CLR 29/01 A3007 RMK AO1
Conditions at: KPVF (PLACERVILLE , CA, US) observed 1955 UTC 25 September 2021
Temperature: 29.0°C (84°F)
Dewpoint: 1.0°C (34°F) [RH = 16%]
Pressure (altimeter): 30.07 inches Hg (1018.4 mb)
Winds: from the WNW (290 degrees) at 7 MPH (6 knots; 3.1 m/s)
Visibility: 10 or more miles (16+ km)
Ceiling: at least 12,000 feet AGL
Clouds: sky clear below 12,000 feet AGL
Weather: automated observation with no human augmentation;
there may or may not be significant weather present at this time

METAR text: KPVF 251935Z AUTO 27006KT 10SM CLR 29/02 A3007 RMK AO1
Conditions at: KPVF (PLACERVILLE , CA, US) observed 1935 UTC 25 September 2021
Temperature: 29.0°C (84°F)
Dewpoint: 2.0°C (36°F) [RH = 18%]
Pressure (altimeter): 30.07 inches Hg (1018.4 mb)
Winds: from the W (270 degrees) at 7 MPH (6 knots; 3.1 m/s)
Visibility: 10 or more miles (16+ km)
Ceiling: at least 12,000 feet AGL
Clouds: sky clear below 12,000 feet AGL
Weather: automated observation with no human augmentation;
there may or may not be significant weather present at this time

METAR text: KPVF 251915Z AUTO 31004KT 10SM CLR 28/02 A3007 RMK AO1
Conditions at: KPVF (PLACERVILLE , CA, US) observed 1915 UTC 25 September 2021
Temperature: 28.0°C (82°F)
Dewpoint: 2.0°C (36°F) [RH = 19%]
Pressure (altimeter): 30.07 inches Hg (1018.4 mb)
Winds: from the NW (310 degrees) at 5 MPH (4 knots; 2.1 m/s)
Visibility: 10 or more miles (16+ km)
Ceiling: at least 12,000 feet AGL
Clouds: sky clear below 12,000 feet AGL
Weather: automated observation with no human augmentation;
there may or may not be significant weather present at this time

METAR text: KPVF 251855Z AUTO 29008KT 10SM CLR 29/03 A3007 RMK AO1
Conditions at: KPVF (PLACERVILLE , CA, US) observed 1855 UTC 25 September 2021
Temperature: 29.0°C (84°F)
Dewpoint: 3.0°C (37°F) [RH = 19%]
Pressure (altimeter): 30.07 inches Hg (1018.4 mb)
Winds: from the WNW (290 degrees) at 9 MPH (8 knots; 4.1 m/s)
Visibility: 10 or more miles (16+ km)
Ceiling: at least 12,000 feet AGL
Clouds: sky clear below 12,000 feet AGL
Weather: automated observation with no human augmentation;
there may or may not be significant weather present at this time

METAR text: KPVF 251835Z AUTO 28008KT 10SM CLR 29/02 A3008 RMK AO1
Conditions at: KPVF (PLACERVILLE , CA, US) observed 1835 UTC 25 September 2021
Temperature: 29.0°C (84°F)
Dewpoint: 2.0°C (36°F) [RH = 18%]
Pressure (altimeter): 30.08 inches Hg (1018.7 mb)
Winds: from the W (280 degrees) at 9 MPH (8 knots; 4.1 m/s)
Visibility: 10 or more miles (16+ km)
Ceiling: at least 12,000 feet AGL
Clouds: sky clear below 12,000 feet AGL
Weather: automated observation with no human augmentation;
there may or may not be significant weather present at this time

METAR text: KPVF 251815Z AUTO 28004KT 10SM CLR 29/01 A3008 RMK AO1
Conditions at: KPVF (PLACERVILLE , CA, US) observed 1815 UTC 25 September 2021
Temperature: 29.0°C (84°F)
Dewpoint: 1.0°C (34°F) [RH = 16%]
Pressure (altimeter): 30.08 inches Hg (1018.7 mb)
Winds: from the W (280 degrees) at 5 MPH (4 knots; 2.1 m/s)
Visibility: 10 or more miles (16+ km)
Ceiling: at least 12,000 feet AGL
Clouds: sky clear below 12,000 feet AGL
Weather: automated observation with no human augmentation;
there may or may not be significant weather present at this time

METAR text: KPVF 251755Z AUTO 26003KT 10SM CLR 29/00 A3008 RMK AO1
Conditions at: KPVF (PLACERVILLE , CA, US) observed 1755 UTC 25 September 2021
Temperature: 29.0°C (84°F)
Dewpoint: 0.0°C (32°F) [RH = 15%]
Pressure (altimeter): 30.08 inches Hg (1018.7 mb)
Winds: from the W (260 degrees) at 3 MPH (3 knots; 1.5 m/s)
Visibility: 10 or more miles (16+ km)
Ceiling: at least 12,000 feet AGL
Clouds: sky clear below 12,000 feet AGL
Weather: automated observation with no human augmentation;
there may or may not be significant weather present at this time

METAR text: KPVF 251735Z AUTO 22003KT 10SM CLR 28/01 A3008 RMK AO1
Conditions at: KPVF (PLACERVILLE , CA, US) observed 1735 UTC 25 September 2021
Temperature: 28.0°C (82°F)
Dewpoint: 1.0°C (34°F) [RH = 17%]
Pressure (altimeter): 30.08 inches Hg (1018.7 mb)
Winds: from the SW (220 degrees) at 3 MPH (3 knots; 1.5 m/s)
Visibility: 10 or more miles (16+ km)
Ceiling: at least 12,000 feet AGL
Clouds: sky clear below 12,000 feet AGL
Weather: automated observation with no human augmentation;
there may or may not be significant weather present at this time

METAR text: KPVF 251715Z AUTO 19004KT 10SM CLR 28/02 A3008 RMK AO1
Conditions at: KPVF (PLACERVILLE , CA, US) observed 1715 UTC 25 September 2021
Temperature: 28.0°C (82°F)
Dewpoint: 2.0°C (36°F) [RH = 19%]
Pressure (altimeter): 30.08 inches Hg (1018.7 mb)
Winds: from the S (190 degrees) at 5 MPH (4 knots; 2.1 m/s)
Visibility: 10 or more miles (16+ km)
Ceiling: at least 12,000 feet AGL
Clouds: sky clear below 12,000 feet AGL
Weather: automated observation with no human augmentation;
there may or may not be significant weather present at this time

METAR text: KPVF 251655Z AUTO 12003KT 10SM CLR 27/02 A3008 RMK AO1
Conditions at: KPVF (PLACERVILLE , CA, US) observed 1655 UTC 25 September 2021
Temperature: 27.0°C (81°F)
Dewpoint: 2.0°C (36°F) [RH = 20%]
Pressure (altimeter): 30.08 inches Hg (1018.7 mb)
Winds: from the ESE (120 degrees) at 3 MPH (3 knots; 1.5 m/s)
Visibility: 10 or more miles (16+ km)
Ceiling: at least 12,000 feet AGL
Clouds: sky clear below 12,000 feet AGL
Weather: automated observation with no human augmentation;
there may or may not be significant weather present at this time

METAR text: KPVF 251635Z AUTO 10003KT 10SM CLR 27/03 A3008 RMK AO1
Conditions at: KPVF (PLACERVILLE , CA, US) observed 1635 UTC 25 September 2021
Temperature: 27.0°C (81°F)
Dewpoint: 3.0°C (37°F) [RH = 21%]
Pressure (altimeter): 30.08 inches Hg (1018.7 mb)
Winds: from the E (100 degrees) at 3 MPH (3 knots; 1.5 m/s)
Visibility: 10 or more miles (16+ km)
Ceiling: at least 12,000 feet AGL
Clouds: sky clear below 12,000 feet AGL
Weather: automated observation with no human augmentation;
there may or may not be significant weather present at this time

METAR text: KPVF 251615Z AUTO 08003KT 10SM CLR 25/03 A3008 RMK AO1
Conditions at: KPVF (PLACERVILLE , CA, US) observed 1615 UTC 25 September 2021
Temperature: 25.0°C (77°F)
Dewpoint: 3.0°C (37°F) [RH = 24%]
Pressure (altimeter): 30.08 inches Hg (1018.7 mb)
Winds: from the E (80 degrees) at 3 MPH (3 knots; 1.5 m/s)
Visibility: 10 or more miles (16+ km)
Ceiling: at least 12,000 feet AGL
Clouds: sky clear below 12,000 feet AGL
Weather: automated observation with no human augmentation;
there may or may not be significant weather present at this time

METAR text: KPVF 251535Z AUTO 08003KT 10SM CLR 24/03 A3008 RMK AO1
Conditions at: KPVF (PLACERVILLE , CA, US) observed 1535 UTC 25 September 2021
Temperature: 24.0°C (75°F)
Dewpoint: 3.0°C (37°F) [RH = 25%]
Pressure (altimeter): 30.08 inches Hg (1018.7 mb)
Winds: from the E (80 degrees) at 3 MPH (3 knots; 1.5 m/s)
Visibility: 10 or more miles (16+ km)
Ceiling: at least 12,000 feet AGL
Clouds: sky clear below 12,000 feet AGL
Weather: automated observation with no human augmentation;
there may or may not be significant weather present at this time

METAR text: KPVF 251515Z AUTO 09005KT 10SM CLR 22/02 A3007 RMK AO1
Conditions at: KPVF (PLACERVILLE , CA, US) observed 1515 UTC 25 September 2021
Temperature: 22.0°C (72°F)
Dewpoint: 2.0°C (36°F) [RH = 27%]
Pressure (altimeter): 30.07 inches Hg (1018.4 mb)
Winds: from the E (90 degrees) at 6 MPH (5 knots; 2.6 m/s)
Visibility: 10 or more miles (16+ km)
Ceiling: at least 12,000 feet AGL
Clouds: sky clear below 12,000 feet AGL
Weather: automated observation with no human augmentation;
there may or may not be significant weather present at this time

METAR text: KPVF 251455Z AUTO 09006KT 10SM CLR 22/02 A3007 RMK AO1
Conditions at: KPVF (PLACERVILLE , CA, US) observed 1455 UTC 25 September 2021
Temperature: 22.0°C (72°F)
Dewpoint: 2.0°C (36°F) [RH = 27%]
Pressure (altimeter): 30.07 inches Hg (1018.4 mb)
Winds: from the E (90 degrees) at 7 MPH (6 knots; 3.1 m/s)
Visibility: 10 or more miles (16+ km)
Ceiling: at least 12,000 feet AGL
Clouds: sky clear below 12,000 feet AGL
Weather: automated observation with no human augmentation;
there may or may not be significant weather present at this time

METAR text: KPVF 251435Z AUTO 10006KT 10SM CLR 20/02 A3007 RMK AO1
Conditions at: KPVF (PLACERVILLE , CA, US) observed 1435 UTC 25 September 2021
Temperature: 20.0°C (68°F)
Dewpoint: 2.0°C (36°F) [RH = 30%]
Pressure (altimeter): 30.07 inches Hg (1018.4 mb)
Winds: from the E (100 degrees) at 7 MPH (6 knots; 3.1 m/s)
Visibility: 10 or more miles (16+ km)
Ceiling: at least 12,000 feet AGL
Clouds: sky clear below 12,000 feet AGL
Weather: automated observation with no human augmentation;
there may or may not be significant weather present at this time

METAR text: KPVF 251415Z AUTO 10006KT 10SM CLR 19/02 A3006 RMK AO1
Conditions at: KPVF (PLACERVILLE , CA, US) observed 1415 UTC 25 September 2021
Temperature: 19.0°C (66°F)
Dewpoint: 2.0°C (36°F) [RH = 32%]
Pressure (altimeter): 30.06 inches Hg (1018.0 mb)
Winds: from the E (100 degrees) at 7 MPH (6 knots; 3.1 m/s)
Visibility: 10 or more miles (16+ km)
Ceiling: at least 12,000 feet AGL
Clouds: sky clear below 12,000 feet AGL
Weather: automated observation with no human augmentation;
there may or may not be significant weather present at this time

METAR text: KPVF 251355Z AUTO 10006KT 10SM SCT060 19/02 A3006 RMK AO1
Conditions at: KPVF (PLACERVILLE , CA, US) observed 1355 UTC 25 September 2021
Temperature: 19.0°C (66°F)
Dewpoint: 2.0°C (36°F) [RH = 32%]
Pressure (altimeter): 30.06 inches Hg (1018.0 mb)
Winds: from the E (100 degrees) at 7 MPH (6 knots; 3.1 m/s)
Visibility: 10 or more miles (16+ km)
Ceiling: at least 12,000 feet AGL
Clouds: scattered clouds at 6000 feet AGL
Weather: automated observation with no human augmentation;
there may or may not be significant weather present at this time

METAR text: KPVF 251335Z AUTO 10007KT 10SM BKN060 OVC070 20/02 A3006 RMK AO1
Conditions at: KPVF (PLACERVILLE , CA, US) observed 1335 UTC 25 September 2021
Temperature: 20.0°C (68°F)
Dewpoint: 2.0°C (36°F) [RH = 30%]
Pressure (altimeter): 30.06 inches Hg (1018.0 mb)
Winds: from the E (100 degrees) at 8 MPH (7 knots; 3.6 m/s)
Visibility: 10 or more miles (16+ km)
Ceiling: 6000 feet AGL
Clouds: broken clouds at 6000 feet AGL
overcast cloud deck at 7000 feet AGL
Weather: automated observation with no human augmentation;
there may or may not be significant weather present at this time

METAR text: KPVF 251315Z AUTO 10006KT 10SM OVC070 20/02 A3006 RMK AO1
Conditions at: KPVF (PLACERVILLE , CA, US) observed 1315 UTC 25 September 2021
Temperature: 20.0°C (68°F)
Dewpoint: 2.0°C (36°F) [RH = 30%]
Pressure (altimeter): 30.06 inches Hg (1018.0 mb)
Winds: from the E (100 degrees) at 7 MPH (6 knots; 3.1 m/s)
Visibility: 10 or more miles (16+ km)
Ceiling: 7000 feet AGL
Clouds: overcast cloud deck at 7000 feet AGL
Weather: automated observation with no human augmentation;
there may or may not be significant weather present at this time

METAR text: KPVF 251255Z AUTO 10005KT 10SM OVC070 19/02 A3006 RMK AO1
Conditions at: KPVF (PLACERVILLE , CA, US) observed 1255 UTC 25 September 2021
Temperature: 19.0°C (66°F)
Dewpoint: 2.0°C (36°F) [RH = 32%]
Pressure (altimeter): 30.06 inches Hg (1018.0 mb)
Winds: from the E (100 degrees) at 6 MPH (5 knots; 2.6 m/s)
Visibility: 10 or more miles (16+ km)
Ceiling: 7000 feet AGL
Clouds: overcast cloud deck at 7000 feet AGL
Weather: automated observation with no human augmentation;
there may or may not be significant weather present at this time

METAR text: KPVF 251235Z AUTO 09005KT 10SM OVC070 19/03 A3006 RMK AO1
Conditions at: KPVF (PLACERVILLE , CA, US) observed 1235 UTC 25 September 2021
Temperature: 19.0°C (66°F)
Dewpoint: 3.0°C (37°F) [RH = 34%]
Pressure (altimeter): 30.06 inches Hg (1018.0 mb)
Winds: from the E (90 degrees) at 6 MPH (5 knots; 2.6 m/s)
Visibility: 10 or more miles (16+ km)
Ceiling: 7000 feet AGL
Clouds: overcast cloud deck at 7000 feet AGL
Weather: automated observation with no human augmentation;
there may or may not be significant weather present at this time

METAR text: KPVF 251215Z AUTO 11005KT 10SM OVC070 20/02 A3005 RMK AO1
Conditions at: KPVF (PLACERVILLE , CA, US) observed 1215 UTC 25 September 2021
Temperature: 20.0°C (68°F)
Dewpoint: 2.0°C (36°F) [RH = 30%]
Pressure (altimeter): 30.05 inches Hg (1017.7 mb)
Winds: from the ESE (110 degrees) at 6 MPH (5 knots; 2.6 m/s)
Visibility: 10 or more miles (16+ km)
Ceiling: 7000 feet AGL
Clouds: overcast cloud deck at 7000 feet AGL
Weather: automated observation with no human augmentation;
there may or may not be significant weather present at this time

METAR text: KPVF 251155Z AUTO 09006KT 10SM OVC070 20/02 A3005 RMK AO1
Conditions at: KPVF (PLACERVILLE , CA, US) observed 1155 UTC 25 September 2021
Temperature: 20.0°C (68°F)
Dewpoint: 2.0°C (36°F) [RH = 30%]
Pressure (altimeter): 30.05 inches Hg (1017.7 mb)
Winds: from the E (90 degrees) at 7 MPH (6 knots; 3.1 m/s)
Visibility: 10 or more miles (16+ km)
Ceiling: 7000 feet AGL
Clouds: overcast cloud deck at 7000 feet AGL
Weather: automated observation with no human augmentation;
there may or may not be significant weather present at this time

METAR text: KPVF 251135Z AUTO 11004KT 10SM OVC070 20/03 A3005 RMK AO1
Conditions at: KPVF (PLACERVILLE , CA, US) observed 1135 UTC 25 September 2021
Temperature: 20.0°C (68°F)
Dewpoint: 3.0°C (37°F) [RH = 32%]
Pressure (altimeter): 30.05 inches Hg (1017.7 mb)
Winds: from the ESE (110 degrees) at 5 MPH (4 knots; 2.1 m/s)
Visibility: 10 or more miles (16+ km)
Ceiling: 7000 feet AGL
Clouds: overcast cloud deck at 7000 feet AGL
Weather: automated observation with no human augmentation;
there may or may not be significant weather present at this time

METAR text: KPVF 251115Z AUTO 13003KT 10SM OVC070 21/02 A3005 RMK AO1
Conditions at: KPVF (PLACERVILLE , CA, US) observed 1115 UTC 25 September 2021
Temperature: 21.0°C (70°F)
Dewpoint: 2.0°C (36°F) [RH = 28%]
Pressure (altimeter): 30.05 inches Hg (1017.7 mb)
Winds: from the SE (130 degrees) at 3 MPH (3 knots; 1.5 m/s)
Visibility: 10 or more miles (16+ km)
Ceiling: 7000 feet AGL
Clouds: overcast cloud deck at 7000 feet AGL
Weather: automated observation with no human augmentation;
there may or may not be significant weather present at this time

METAR text: KPVF 251055Z AUTO 11004KT 10SM OVC060 20/02 A3005 RMK AO1
Conditions at: KPVF (PLACERVILLE , CA, US) observed 1055 UTC 25 September 2021
Temperature: 20.0°C (68°F)
Dewpoint: 2.0°C (36°F) [RH = 30%]
Pressure (altimeter): 30.05 inches Hg (1017.7 mb)
Winds: from the ESE (110 degrees) at 5 MPH (4 knots; 2.1 m/s)
Visibility: 10 or more miles (16+ km)
Ceiling: 6000 feet AGL
Clouds: overcast cloud deck at 6000 feet AGL
Weather: automated observation with no human augmentation;
there may or may not be significant weather present at this time

METAR text: KPVF 251035Z AUTO 13004KT 10SM OVC060 20/02 A3005 RMK AO1
Conditions at: KPVF (PLACERVILLE , CA, US) observed 1035 UTC 25 September 2021
Temperature: 20.0°C (68°F)
Dewpoint: 2.0°C (36°F) [RH = 30%]
Pressure (altimeter): 30.05 inches Hg (1017.7 mb)
Winds: from the SE (130 degrees) at 5 MPH (4 knots; 2.1 m/s)
Visibility: 10 or more miles (16+ km)
Ceiling: 6000 feet AGL
Clouds: overcast cloud deck at 6000 feet AGL
Weather: automated observation with no human augmentation;
there may or may not be significant weather present at this time

METAR text: KPVF 251015Z AUTO 10004KT 10SM OVC070 19/03 A3006 RMK AO1
Conditions at: KPVF (PLACERVILLE , CA, US) observed 1015 UTC 25 September 2021
Temperature: 19.0°C (66°F)
Dewpoint: 3.0°C (37°F) [RH = 34%]
Pressure (altimeter): 30.06 inches Hg (1018.0 mb)
Winds: from the E (100 degrees) at 5 MPH (4 knots; 2.1 m/s)
Visibility: 10 or more miles (16+ km)
Ceiling: 7000 feet AGL
Clouds: overcast cloud deck at 7000 feet AGL
Weather: automated observation with no human augmentation;
there may or may not be significant weather present at this time

METAR text: KPVF 250955Z AUTO 10005KT 10SM OVC070 20/03 A3006 RMK AO1
Conditions at: KPVF (PLACERVILLE , CA, US) observed 0955 UTC 25 September 2021
Temperature: 20.0°C (68°F)
Dewpoint: 3.0°C (37°F) [RH = 32%]
Pressure (altimeter): 30.06 inches Hg (1018.0 mb)
Winds: from the E (100 degrees) at 6 MPH (5 knots; 2.6 m/s)
Visibility: 10 or more miles (16+ km)
Ceiling: 7000 feet AGL
Clouds: overcast cloud deck at 7000 feet AGL
Weather: automated observation with no human augmentation;
there may or may not be significant weather present at this time

METAR text: KPVF 250935Z AUTO 09005KT 10SM BKN070 OVC080 20/03 A3006 RMK AO1
Conditions at: KPVF (PLACERVILLE , CA, US) observed 0935 UTC 25 September 2021
Temperature: 20.0°C (68°F)
Dewpoint: 3.0°C (37°F) [RH = 32%]
Pressure (altimeter): 30.06 inches Hg (1018.0 mb)
Winds: from the E (90 degrees) at 6 MPH (5 knots; 2.6 m/s)
Visibility: 10 or more miles (16+ km)
Ceiling: 7000 feet AGL
Clouds: broken clouds at 7000 feet AGL
overcast cloud deck at 8000 feet AGL
Weather: automated observation with no human augmentation;
there may or may not be significant weather present at this time

METAR text: KPVF 250915Z AUTO 09005KT 10SM OVC080 20/03 A3006 RMK AO1
Conditions at: KPVF (PLACERVILLE , CA, US) observed 0915 UTC 25 September 2021
Temperature: 20.0°C (68°F)
Dewpoint: 3.0°C (37°F) [RH = 32%]
Pressure (altimeter): 30.06 inches Hg (1018.0 mb)
Winds: from the E (90 degrees) at 6 MPH (5 knots; 2.6 m/s)
Visibility: 10 or more miles (16+ km)
Ceiling: 8000 feet AGL
Clouds: overcast cloud deck at 8000 feet AGL
Weather: automated observation with no human augmentation;
there may or may not be significant weather present at this time

METAR text: KPVF 250855Z AUTO 09006KT 10SM FEW036 OVC080 20/03 A3006 RMK AO1
Conditions at: KPVF (PLACERVILLE , CA, US) observed 0855 UTC 25 September 2021
Temperature: 20.0°C (68°F)
Dewpoint: 3.0°C (37°F) [RH = 32%]
Pressure (altimeter): 30.06 inches Hg (1018.0 mb)
Winds: from the E (90 degrees) at 7 MPH (6 knots; 3.1 m/s)
Visibility: 10 or more miles (16+ km)
Ceiling: 8000 feet AGL
Clouds: few clouds at 3600 feet AGL
overcast cloud deck at 8000 feet AGL
Weather: automated observation with no human augmentation;
there may or may not be significant weather present at this time

METAR text: KPVF 250835Z AUTO 10007KT 10SM FEW036 OVC080 20/03 A3005 RMK AO1
Conditions at: KPVF (PLACERVILLE , CA, US) observed 0835 UTC 25 September 2021
Temperature: 20.0°C (68°F)
Dewpoint: 3.0°C (37°F) [RH = 32%]
Pressure (altimeter): 30.05 inches Hg (1017.7 mb)
Winds: from the E (100 degrees) at 8 MPH (7 knots; 3.6 m/s)
Visibility: 10 or more miles (16+ km)
Ceiling: 8000 feet AGL
Clouds: few clouds at 3600 feet AGL
overcast cloud deck at 8000 feet AGL
Weather: automated observation with no human augmentation;
there may or may not be significant weather present at this time

METAR text: KPVF 250815Z AUTO 10005KT 10SM OVC080 20/03 A3005 RMK AO1
Conditions at: KPVF (PLACERVILLE , CA, US) observed 0815 UTC 25 September 2021
Temperature: 20.0°C (68°F)
Dewpoint: 3.0°C (37°F) [RH = 32%]
Pressure (altimeter): 30.05 inches Hg (1017.7 mb)
Winds: from the E (100 degrees) at 6 MPH (5 knots; 2.6 m/s)
Visibility: 10 or more miles (16+ km)
Ceiling: 8000 feet AGL
Clouds: overcast cloud deck at 8000 feet AGL
Weather: automated observation with no human augmentation;
there may or may not be significant weather present at this time

METAR text: KPVF 250755Z AUTO 12005KT 10SM BKN070 OVC080 21/03 A3005 RMK AO1
Conditions at: KPVF (PLACERVILLE , CA, US) observed 0755 UTC 25 September 2021
Temperature: 21.0°C (70°F)
Dewpoint: 3.0°C (37°F) [RH = 30%]
Pressure (altimeter): 30.05 inches Hg (1017.7 mb)
Winds: from the ESE (120 degrees) at 6 MPH (5 knots; 2.6 m/s)
Visibility: 10 or more miles (16+ km)
Ceiling: 7000 feet AGL
Clouds: broken clouds at 7000 feet AGL
overcast cloud deck at 8000 feet AGL
Weather: automated observation with no human augmentation;
there may or may not be significant weather present at this time

METAR text: KPVF 250735Z AUTO 13004KT 10SM OVC060 22/03 A3005 RMK AO1
Conditions at: KPVF (PLACERVILLE , CA, US) observed 0735 UTC 25 September 2021
Temperature: 22.0°C (72°F)
Dewpoint: 3.0°C (37°F) [RH = 29%]
Pressure (altimeter): 30.05 inches Hg (1017.7 mb)
Winds: from the SE (130 degrees) at 5 MPH (4 knots; 2.1 m/s)
Visibility: 10 or more miles (16+ km)
Ceiling: 6000 feet AGL
Clouds: overcast cloud deck at 6000 feet AGL
Weather: automated observation with no human augmentation;
there may or may not be significant weather present at this time